createdAt,value
2022-12-22T00:00:19.380Z,99524.66
2022-12-22T00:03:33.472Z,99521.52
2022-12-22T00:06:27.788Z,99529.87
2022-12-22T00:09:18.160Z,99527.60
2022-12-22T00:12:08.477Z,99529.70
2022-12-22T00:14:58.677Z,99527.77
2022-12-22T00:17:50.086Z,99522.42
2022-12-22T00:20:41.610Z,99520.89
2022-12-22T00:23:32.060Z,99517.02
2022-12-22T00:26:22.274Z,99512.23
2022-12-22T00:29:12.215Z,99518.88
2022-12-22T00:32:02.429Z,99524.04
2022-12-22T00:34:58.293Z,99516.64
2022-12-22T00:37:52.512Z,99517.16
2022-12-22T00:40:45.240Z,99514.17
2022-12-22T00:43:35.399Z,99506.20
2022-12-22T00:46:28.770Z,99501.13
2022-12-22T00:49:19.135Z,99519.44
2022-12-22T00:52:09.197Z,99518.56
2022-12-22T00:54:59.258Z,99519.48
2022-12-22T00:57:49.204Z,99517.76
2022-12-22T01:00:40.199Z,99518.38
2022-12-22T01:03:31.039Z,99520.84
2022-12-22T01:06:22.410Z,99514.38
2022-12-22T01:09:12.339Z,99510.45
2022-12-22T01:12:02.432Z,99502.96
2022-12-22T01:14:52.774Z,99504.73
2022-12-22T01:17:43.138Z,99506.66
2022-12-22T01:20:33.563Z,99500.64
2022-12-22T01:23:27.262Z,99506.58
2022-12-22T01:26:17.451Z,99507.81
2022-12-22T01:29:07.642Z,99506.41
2022-12-22T01:31:57.507Z,99511.18
2022-12-22T01:34:47.590Z,99513.55
2022-12-22T01:37:37.550Z,99509.05
2022-12-22T01:40:35.117Z,99503.39
2022-12-22T01:43:37.336Z,99503.92
2022-12-22T01:46:43.091Z,99498.92
2022-12-22T01:49:37.742Z,99497.98
2022-12-22T01:52:29.965Z,99490.39
2022-12-22T01:55:23.776Z,99492.48
2022-12-22T01:58:14.155Z,99491.42
2022-12-22T02:01:05.920Z,99492.80
2022-12-22T02:03:56.651Z,99495.13
2022-12-22T02:06:56.255Z,99500.52
2022-12-22T02:09:59.161Z,99501.94
2022-12-22T02:12:58.182Z,99501.88
2022-12-22T02:15:55.226Z,99504.34
2022-12-22T02:18:52.535Z,99506.23
2022-12-22T02:21:47.567Z,99504.87
2022-12-22T02:24:47.521Z,99500.59
2022-12-22T02:27:38.115Z,99498.25
2022-12-22T02:30:30.759Z,99496.83
2022-12-22T02:33:22.899Z,99492.70
2022-12-22T02:36:23.864Z,99496.05
2022-12-22T02:39:24.652Z,99496.27
2022-12-22T02:42:24.886Z,99494.64
2022-12-22T02:45:24.236Z,99490.34
2022-12-22T02:48:21.161Z,99480.28
2022-12-22T02:51:16.649Z,99483.87
2022-12-22T02:54:07.665Z,99487.60
2022-12-22T02:56:58.594Z,99490.61
2022-12-22T02:59:48.567Z,99494.73
2022-12-22T03:02:39.315Z,99494.03
2022-12-22T03:05:29.717Z,99490.14
2022-12-22T03:08:19.930Z,99484.97
2022-12-22T03:11:10.185Z,99483.97
2022-12-22T03:14:00.151Z,99480.40
2022-12-22T03:16:49.876Z,99481.73
2022-12-22T03:19:40.068Z,99483.69
2022-12-22T03:22:30.283Z,99484.83
2022-12-22T03:25:20.283Z,99484.42
2022-12-22T03:27:52.623Z,99476.79
2022-12-22T03:30:24.939Z,99470.41
2022-12-22T03:32:57.320Z,99472.59
2022-12-22T03:35:29.915Z,99469.11
2022-12-22T03:38:03.658Z,99464.29
2022-12-22T03:40:36.223Z,99465.65
2022-12-22T03:43:26.106Z,99465.30
2022-12-22T03:46:16.756Z,99461.51
2022-12-22T03:49:09.799Z,99460.20
2022-12-22T03:51:44.795Z,99455.96
2022-12-22T03:54:19.467Z,99454.29
2022-12-22T03:56:52.563Z,99452.19
2022-12-22T03:59:24.862Z,99451.28
2022-12-22T04:01:57.456Z,99445.73
2022-12-22T04:04:29.971Z,99448.02
2022-12-22T04:07:02.470Z,99440.98
2022-12-22T04:09:34.843Z,99444.66
2022-12-22T04:12:27.163Z,99445.70
2022-12-22T04:14:59.564Z,99448.27
2022-12-22T04:17:31.857Z,99449.77
2022-12-22T04:20:04.392Z,99448.45
2022-12-22T04:22:36.757Z,99446.84
2022-12-22T04:25:10.859Z,99445.65
2022-12-22T04:27:43.500Z,99443.09
2022-12-22T04:30:17.111Z,99435.67
2022-12-22T04:32:49.506Z,99428.88
2022-12-22T04:35:22.125Z,99428.02
2022-12-22T04:37:54.470Z,99436.89
2022-12-22T04:40:26.844Z,99435.14
2022-12-22T04:42:59.193Z,99437.49
2022-12-22T04:45:31.569Z,99428.14
2022-12-22T04:48:03.917Z,99433.67
2022-12-22T04:50:36.489Z,99430.91
2022-12-22T04:53:08.890Z,99426.04
2022-12-22T04:55:46.099Z,99424.04
2022-12-22T04:58:18.656Z,99427.41
2022-12-22T05:00:51.062Z,99422.48
2022-12-22T05:03:24.238Z,99425.02
2022-12-22T05:05:56.667Z,99425.73
2022-12-22T05:08:28.921Z,99432.14
2022-12-22T05:11:03.052Z,99427.34
2022-12-22T05:13:36.347Z,99422.58
2022-12-22T05:16:12.356Z,99425.10
2022-12-22T05:18:46.545Z,99421.99
2022-12-22T05:21:21.179Z,99418.06
2022-12-22T05:23:53.807Z,99417.04
2022-12-22T05:26:26.304Z,99415.61
2022-12-22T05:28:58.621Z,99421.91
2022-12-22T05:31:31.087Z,99421.65
2022-12-22T05:34:03.529Z,99423.59
2022-12-22T05:36:36.206Z,99420.90
2022-12-22T05:39:09.371Z,99421.94
2022-12-22T05:41:41.758Z,99427.58
2022-12-22T05:44:14.068Z,99427.29
2022-12-22T05:46:46.560Z,99424.11
2022-12-22T05:49:18.994Z,99425.98
2022-12-22T05:51:54.109Z,99429.70
2022-12-22T05:54:24.912Z,99431.52
2022-12-22T05:56:57.310Z,99430.18
2022-12-22T05:59:29.633Z,99425.04
2022-12-22T06:02:02.149Z,99425.29
2022-12-22T06:04:34.660Z,99426.76
2022-12-22T06:07:06.987Z,99418.77
2022-12-22T06:09:39.381Z,99417.80
2022-12-22T06:12:12.063Z,99413.60
2022-12-22T06:14:44.767Z,99413.77
2022-12-22T06:17:17.093Z,99414.14
2022-12-22T06:19:49.436Z,99417.12
2022-12-22T06:22:21.837Z,99415.85
2022-12-22T06:24:54.238Z,99416.77
2022-12-22T06:27:26.589Z,99412.08
2022-12-22T06:29:58.930Z,99412.46
2022-12-22T06:32:31.301Z,99413.50
2022-12-22T06:35:03.627Z,99415.47
2022-12-22T06:37:36.068Z,99420.74
2022-12-22T06:40:10.990Z,99424.45
2022-12-22T06:43:08.147Z,99431.62
2022-12-22T06:45:43.520Z,99442.34
2022-12-22T06:48:16.191Z,99448.38
2022-12-22T06:50:48.513Z,99445.91
2022-12-22T06:53:20.882Z,99449.83
2022-12-22T06:55:53.251Z,99449.79
2022-12-22T06:58:25.678Z,99443.58
2022-12-22T07:00:59.892Z,99441.23
2022-12-22T07:03:32.248Z,99436.82
2022-12-22T07:06:04.672Z,99434.20
2022-12-22T07:08:37.051Z,99433.58
2022-12-22T07:11:09.667Z,99427.44
2022-12-22T07:13:42.044Z,99424.66
2022-12-22T07:16:14.732Z,99421.41
2022-12-22T07:18:47.118Z,99409.14
2022-12-22T07:21:19.492Z,99406.84
2022-12-22T07:23:51.812Z,99407.55
2022-12-22T07:26:24.109Z,99411.62
2022-12-22T07:28:56.483Z,99411.21
2022-12-22T07:31:28.862Z,99412.79
2022-12-22T07:34:01.256Z,99418.23
2022-12-22T07:36:33.605Z,99422.86
2022-12-22T07:39:06.238Z,99427.67
2022-12-22T07:41:56.393Z,99429.16
2022-12-22T07:44:28.754Z,99419.85
2022-12-22T07:47:01.223Z,99418.81
2022-12-22T07:49:59.553Z,99417.80
2022-12-22T07:52:31.890Z,99421.60
2022-12-22T07:55:04.196Z,99420.36
2022-12-22T07:57:37.181Z,99415.45
2022-12-22T08:00:12.378Z,99408.17
2022-12-22T08:02:43.680Z,99405.90
2022-12-22T08:05:16.396Z,99404.46
2022-12-22T08:07:51.183Z,99397.15
2022-12-22T08:10:23.559Z,99390.91
2022-12-22T08:12:57.031Z,99391.71
2022-12-22T08:15:29.503Z,99385.17
2022-12-22T08:18:01.961Z,99387.28
2022-12-22T08:20:34.356Z,99383.31
2022-12-22T08:23:06.926Z,99386.80
2022-12-22T08:25:39.361Z,99386.27
2022-12-22T08:28:15.285Z,99383.23
2022-12-22T08:30:48.757Z,99384.42
2022-12-22T08:33:21.108Z,99391.51
2022-12-22T08:35:53.611Z,99390.60
2022-12-22T08:38:26.160Z,99388.56
2022-12-22T08:40:59.144Z,99385.80
2022-12-22T08:43:33.948Z,99381.89
2022-12-22T08:46:06.591Z,99377.91
2022-12-22T08:48:38.936Z,99374.38
2022-12-22T08:51:11.350Z,99372.14
2022-12-22T08:54:04.483Z,99371.91
2022-12-22T08:56:36.475Z,99365.33
2022-12-22T08:59:09.769Z,99361.69
2022-12-22T09:01:44.593Z,99357.75
2022-12-22T09:04:18.559Z,99359.16
2022-12-22T09:06:52.393Z,99357.89
2022-12-22T09:09:24.780Z,99363.89
2022-12-22T09:11:57.264Z,99359.45
2022-12-22T09:14:30.565Z,99353.05
2022-12-22T09:17:03.144Z,99351.95
2022-12-22T09:19:35.589Z,99348.23
2022-12-22T09:22:07.985Z,99345.92
2022-12-22T09:24:40.257Z,99342.36
2022-12-22T09:27:13.174Z,99338.88
2022-12-22T09:29:45.488Z,99334.91
2022-12-22T09:32:17.956Z,99332.64
2022-12-22T09:34:50.288Z,99331.10
2022-12-22T09:37:22.583Z,99325.48
2022-12-22T09:39:54.955Z,99315.25
2022-12-22T09:42:27.407Z,99308.14
2022-12-22T09:44:59.751Z,99303.23
2022-12-22T09:47:37.966Z,99295.66
2022-12-22T09:50:18.303Z,99289.61
2022-12-22T09:52:54.491Z,99283.81
2022-12-22T09:55:40.734Z,99277.96
2022-12-22T09:58:27.196Z,99267.05
2022-12-22T10:01:10.127Z,99268.84
2022-12-22T10:03:52.738Z,99273.55
2022-12-22T10:06:35.945Z,99271.38
2022-12-22T10:09:46.331Z,99263.16
2022-12-22T10:12:14.947Z,99259.02
2022-12-22T10:14:49.374Z,99253.75
2022-12-22T10:17:26.016Z,99246.66
2022-12-22T10:20:26.568Z,99244.42
2022-12-22T10:23:02.023Z,99232.40
2022-12-22T10:26:26.774Z,99222.33
2022-12-22T10:28:39.944Z,99217.30
2022-12-22T10:31:23.745Z,99213.30
2022-12-22T10:33:59.982Z,99200.21
2022-12-22T10:36:34.192Z,99195.95
2022-12-22T10:39:09.693Z,99190.92
2022-12-22T10:41:45.384Z,99181.84
2022-12-22T10:44:25.307Z,99186.98
2022-12-22T10:46:59.583Z,99184.14
2022-12-22T10:52:17.780Z,99183.91
2022-12-22T10:54:50.906Z,99183.38
2022-12-22T10:57:31.986Z,99177.55
2022-12-22T11:00:23.329Z,99172.44
2022-12-22T11:02:57.988Z,99174.95
2022-12-22T11:05:31.099Z,99171.31
2022-12-22T11:08:21.920Z,99173.77
2022-12-22T11:10:58.651Z,99172.72
2022-12-22T11:13:48.519Z,99174.39
2022-12-22T11:16:27.133Z,99169.71
2022-12-22T11:19:12.171Z,99166.58
2022-12-22T11:21:52.174Z,99169.44
2022-12-22T11:24:33.635Z,99166.41
2022-12-22T11:27:23.080Z,99160.14
2022-12-22T11:30:14.044Z,99151.11
2022-12-22T11:32:59.604Z,99151.11
2022-12-22T11:35:45.974Z,99148.63
2022-12-22T11:38:30.329Z,99146.81
2022-12-22T11:41:12.738Z,99143.48
2022-12-22T11:44:01.730Z,99137.95
2022-12-22T11:46:44.695Z,99133.98
2022-12-22T11:49:46.280Z,99131.11
2022-12-22T11:52:35.017Z,99125.35
2022-12-22T11:55:29.121Z,99126.91
2022-12-22T11:58:23.571Z,99127.44
2022-12-22T12:01:16.312Z,99119.98
2022-12-22T12:04:20.085Z,99116.11
2022-12-22T12:07:25.170Z,99111.11
2022-12-22T12:10:08.160Z,99103.84
2022-12-22T12:12:52.900Z,99100.73
2022-12-22T12:15:38.081Z,99091.71
2022-12-22T12:18:39.548Z,99085.92
2022-12-22T12:21:30.506Z,99080.50
2022-12-22T12:24:19.571Z,99079.77
2022-12-22T12:27:03.569Z,99081.44
2022-12-22T12:29:41.732Z,99074.39
2022-12-22T12:32:18.201Z,99070.80
2022-12-22T12:34:58.889Z,99069.20
2022-12-22T12:37:38.286Z,99064.05
2022-12-22T12:40:30.823Z,99061.27
2022-12-22T12:43:04.787Z,99067.11
2022-12-22T12:45:39.873Z,99065.14
2022-12-22T12:48:43.742Z,99064.86
2022-12-22T12:51:48.713Z,99064.14
2022-12-22T12:54:41.148Z,99061.02
2022-12-22T12:57:28.184Z,99062.27
2022-12-22T13:00:01.685Z,99056.05
2022-12-22T13:02:57.160Z,99057.89
2022-12-22T13:05:36.704Z,99055.33
2022-12-22T13:08:26.397Z,99051.09
2022-12-22T13:14:57.635Z,99049.27
2022-12-22T13:17:42.852Z,99042.52
2022-12-22T13:20:22.230Z,99042.44
2022-12-22T13:22:58.183Z,99047.55
2022-12-22T13:25:42.658Z,99053.87
2022-12-22T13:28:18.597Z,99052.48
2022-12-22T13:30:54.550Z,99046.96
2022-12-22T13:33:30.385Z,99045.79
2022-12-22T13:36:04.114Z,99043.79
2022-12-22T13:38:38.812Z,99036.73
2022-12-22T13:41:22.985Z,99037.79
2022-12-22T13:44:05.683Z,99031.01
2022-12-22T13:46:39.247Z,99027.50
2022-12-22T13:49:30.151Z,99024.17
2022-12-22T13:52:13.363Z,99019.96
2022-12-22T13:54:46.869Z,99020.10
2022-12-22T13:57:22.905Z,99020.09
2022-12-22T13:59:56.017Z,99019.92
2022-12-22T14:02:34.900Z,99018.03
2022-12-22T14:05:10.242Z,99019.87
2022-12-22T14:07:57.914Z,99016.13
2022-12-22T14:10:34.237Z,99014.45
2022-12-22T14:13:13.206Z,99013.03
2022-12-22T14:15:46.466Z,99014.41
2022-12-22T14:18:23.531Z,99015.71
2022-12-22T14:20:56.808Z,99015.89
2022-12-22T14:23:32.067Z,99011.69
2022-12-22T14:26:09.487Z,99009.52
2022-12-22T14:28:50.815Z,99003.36
2022-12-22T14:31:23.509Z,98997.52
2022-12-22T14:34:05.384Z,99000.66
2022-12-22T14:36:46.036Z,98996.30
2022-12-22T14:39:26.000Z,99000.15
2022-12-22T14:42:01.049Z,98992.71
2022-12-22T14:44:37.790Z,98985.92
2022-12-22T14:47:21.639Z,98986.83
2022-12-22T14:49:57.041Z,98983.95
2022-12-22T14:52:36.037Z,98981.81
2022-12-22T14:55:23.729Z,98980.94
2022-12-22T14:57:59.011Z,98977.83
2022-12-22T15:00:36.016Z,98975.34
2022-12-22T15:03:22.844Z,98970.67
2022-12-22T15:05:55.840Z,98974.66
2022-12-22T15:08:44.011Z,98973.48
2022-12-22T15:11:19.420Z,98969.52
2022-12-22T15:13:52.952Z,98978.27
2022-12-22T15:16:26.453Z,98969.56
2022-12-22T15:18:59.139Z,98973.09
2022-12-22T15:21:31.722Z,98967.92
2022-12-22T15:24:05.261Z,98966.64
2022-12-22T15:26:38.069Z,98968.27
2022-12-22T15:29:10.646Z,98965.90
2022-12-22T15:31:44.157Z,98963.07
2022-12-22T15:34:19.703Z,98957.72
2022-12-22T15:36:52.222Z,98954.20
2022-12-22T15:39:25.762Z,98950.52
2022-12-22T15:41:58.299Z,98948.45
2022-12-22T15:44:35.220Z,98950.30
2022-12-22T15:47:13.237Z,98948.53
2022-12-22T15:49:45.583Z,98946.19
2022-12-22T15:52:17.912Z,98941.84
2022-12-22T15:54:50.384Z,98941.89
2022-12-22T15:57:22.934Z,98938.41
2022-12-22T15:59:55.288Z,98936.51
2022-12-22T16:02:27.748Z,98940.45
2022-12-22T16:05:01.050Z,98936.88
2022-12-22T16:07:34.500Z,98931.56
2022-12-22T16:10:09.792Z,98930.91
2022-12-22T16:12:43.264Z,98930.89
2022-12-22T16:15:17.299Z,98929.65
2022-12-22T16:17:52.179Z,98924.61
2022-12-22T16:20:24.919Z,98921.71
2022-12-22T16:22:57.541Z,98920.85
2022-12-22T16:25:34.168Z,98917.91
2022-12-22T16:28:08.253Z,98915.94
2022-12-22T16:30:41.854Z,98918.55
2022-12-22T16:33:15.690Z,98915.00
2022-12-22T16:35:48.495Z,98910.89
2022-12-22T16:38:20.945Z,98912.49
2022-12-22T16:40:54.822Z,98907.34
2022-12-22T16:46:26.154Z,98907.19
2022-12-22T16:49:01.022Z,98909.55
2022-12-22T16:51:36.970Z,98909.56
2022-12-22T16:54:14.438Z,98909.35
2022-12-22T16:56:47.630Z,98913.20
2022-12-22T16:59:20.141Z,98909.91
2022-12-22T17:01:56.655Z,98905.66
2022-12-22T17:04:32.137Z,98902.91
2022-12-22T17:07:04.983Z,98899.86
2022-12-22T17:09:43.456Z,98892.71
2022-12-22T17:12:19.449Z,98894.01
2022-12-22T17:14:52.790Z,98891.70
2022-12-22T17:17:31.870Z,98886.60
2022-12-22T17:20:06.195Z,98883.87
2022-12-22T17:22:39.316Z,98881.70
2022-12-22T17:25:19.359Z,98884.33
2022-12-22T17:27:52.122Z,98885.09
2022-12-22T17:30:27.171Z,98884.98
2022-12-22T17:32:57.987Z,98881.48
2022-12-22T17:35:33.389Z,98884.04
2022-12-22T17:38:05.759Z,98881.94
2022-12-22T17:40:38.767Z,98875.76
2022-12-22T17:43:15.266Z,98871.54
2022-12-22T17:45:48.657Z,98873.25
2022-12-22T17:48:20.963Z,98869.98
2022-12-22T17:50:53.376Z,98870.66
2022-12-22T17:53:25.932Z,98873.05
2022-12-22T17:56:09.320Z,98867.04
2022-12-22T17:58:43.504Z,98867.67
2022-12-22T18:01:31.105Z,98864.61
2022-12-22T18:04:03.823Z,98861.05
2022-12-22T18:06:39.706Z,98860.31
2022-12-22T18:09:21.786Z,98857.89
2022-12-22T18:11:54.476Z,98853.66
2022-12-22T18:14:27.621Z,98851.66
2022-12-22T18:16:59.976Z,98851.36
2022-12-22T18:19:32.441Z,98847.52
2022-12-22T18:22:04.992Z,98846.48
2022-12-22T18:24:37.466Z,98845.91
2022-12-22T18:27:12.938Z,98838.23
2022-12-22T18:29:45.747Z,98835.71
2022-12-22T18:32:26.414Z,98838.09
2022-12-22T18:34:59.731Z,98829.34
2022-12-22T18:37:32.106Z,98835.52
2022-12-22T18:40:05.364Z,98834.66
2022-12-22T18:42:37.927Z,98835.86
2022-12-22T18:45:16.407Z,98830.35
2022-12-22T18:47:48.821Z,98829.84
2022-12-22T18:50:24.608Z,98826.73
2022-12-22T18:53:01.348Z,98827.40
2022-12-22T18:55:34.775Z,98825.79
2022-12-22T18:58:07.070Z,98824.83
2022-12-22T19:00:39.633Z,98822.63
2022-12-22T19:03:20.900Z,98824.40
2022-12-22T19:05:53.583Z,98823.16
2022-12-22T19:08:28.230Z,98820.02
2022-12-22T19:11:04.986Z,98819.31
2022-12-22T19:13:40.100Z,98814.42
2022-12-22T19:16:12.813Z,98812.67
2022-12-22T19:18:45.313Z,98811.86
2022-12-22T19:21:19.184Z,98809.91
2022-12-22T19:23:51.588Z,98812.64
2022-12-22T19:26:26.585Z,98812.42
2022-12-22T19:29:01.356Z,98808.54
2022-12-22T19:31:37.299Z,98810.14
2022-12-22T19:34:16.539Z,98812.16
2022-12-22T19:36:48.972Z,98809.78
2022-12-22T19:39:21.215Z,98810.10
2022-12-22T19:41:55.587Z,98808.77
2022-12-22T19:44:30.876Z,98810.60
2022-12-22T19:47:04.617Z,98811.23
2022-12-22T19:49:37.119Z,98810.27
2022-12-22T19:52:11.984Z,98808.59
2022-12-22T19:54:44.256Z,98807.86
2022-12-22T19:57:22.704Z,98809.99
2022-12-22T19:59:56.538Z,98811.13
2022-12-22T20:02:31.814Z,98812.73
2022-12-22T20:05:08.836Z,98814.29
2022-12-22T20:07:44.062Z,98815.65
2022-12-22T20:10:16.641Z,98815.90
2022-12-22T20:12:51.212Z,98816.08
2022-12-22T20:15:26.052Z,98815.14
2022-12-22T20:17:58.988Z,98812.93
2022-12-22T20:20:34.456Z,98812.17
2022-12-22T20:23:13.079Z,98807.91
2022-12-22T20:25:47.970Z,98807.64
2022-12-22T20:28:23.326Z,98806.98
2022-12-22T20:30:56.514Z,98808.20
2022-12-22T20:33:29.588Z,98805.92
2022-12-22T20:36:03.959Z,98806.52
2022-12-22T20:38:38.404Z,98805.67
2022-12-22T20:41:12.475Z,98802.59
2022-12-22T20:43:45.169Z,98806.90
2022-12-22T20:46:21.053Z,98805.46
2022-12-22T20:48:57.027Z,98803.59
2022-12-22T20:51:32.447Z,98803.27
2022-12-22T20:54:04.928Z,98808.71
2022-12-22T20:56:39.750Z,98806.63
2022-12-22T20:59:16.643Z,98806.42
2022-12-22T21:01:50.734Z,98809.15
2022-12-22T21:04:23.246Z,98807.88
2022-12-22T21:06:57.254Z,98810.66
2022-12-22T21:09:29.618Z,98811.67
2022-12-22T21:12:02.062Z,98811.40
2022-12-22T21:14:34.535Z,98813.52
2022-12-22T21:17:43.302Z,98816.21
2022-12-22T21:20:24.435Z,98813.86
2022-12-22T21:22:56.844Z,98813.00
2022-12-22T21:25:29.318Z,98816.02
2022-12-22T21:28:02.607Z,98814.31
2022-12-22T21:30:35.079Z,98811.84
2022-12-22T21:33:07.557Z,98810.99
2022-12-22T21:35:40.209Z,98811.49
2022-12-22T21:38:19.012Z,98809.67
2022-12-22T21:40:51.357Z,98809.98
2022-12-22T21:43:24.014Z,98810.81
2022-12-22T21:45:56.373Z,98809.43
2022-12-22T21:48:28.758Z,98805.80
2022-12-22T21:51:01.655Z,98807.17
2022-12-22T21:53:34.148Z,98806.84
2022-12-22T21:56:17.296Z,98804.15
2022-12-22T21:58:49.598Z,98805.33
2022-12-22T22:01:21.941Z,98809.65
2022-12-22T22:03:54.368Z,98806.39
2022-12-22T22:06:26.841Z,98806.83
2022-12-22T22:08:59.211Z,98811.86
2022-12-22T22:11:31.827Z,98816.14
2022-12-22T22:14:04.263Z,98814.23
2022-12-22T22:16:37.071Z,98813.65
2022-12-22T22:19:09.601Z,98816.04
2022-12-22T22:21:42.229Z,98819.13
2022-12-22T22:24:15.172Z,98820.83
2022-12-22T22:26:50.559Z,98828.23
2022-12-22T22:29:23.142Z,98828.54
2022-12-22T22:31:55.462Z,98830.02
2022-12-22T22:34:27.877Z,98829.31
2022-12-22T22:37:00.203Z,98827.28
2022-12-22T22:39:32.677Z,98826.78
2022-12-22T22:42:05.232Z,98827.81
2022-12-22T22:44:37.606Z,98828.64
2022-12-22T22:47:10.004Z,98833.79
2022-12-22T22:49:42.428Z,98846.38
2022-12-22T22:52:14.832Z,98848.02
2022-12-22T22:54:47.224Z,98845.69
2022-12-22T22:57:19.904Z,98845.39
2022-12-22T22:59:52.255Z,98841.89
2022-12-22T23:02:24.737Z,98844.23
2022-12-22T23:04:57.280Z,98852.58
2022-12-22T23:07:29.630Z,98856.70
2022-12-22T23:10:02.084Z,98854.34
2022-12-22T23:12:34.576Z,98848.52
2022-12-22T23:15:09.927Z,98844.77
2022-12-22T23:17:42.226Z,98843.80
2022-12-22T23:20:14.912Z,98845.21
2022-12-22T23:22:47.344Z,98846.59
2022-12-22T23:25:19.976Z,98846.18
2022-12-22T23:27:52.323Z,98852.66
2022-12-22T23:30:24.774Z,98855.96
2022-12-22T23:32:57.095Z,98858.80
2022-12-22T23:35:29.495Z,98859.38
2022-12-22T23:38:01.869Z,98866.72
2022-12-22T23:40:51.714Z,98866.05
2022-12-22T23:43:25.684Z,98868.84
2022-12-22T23:45:58.029Z,98868.80
2022-12-22T23:48:30.348Z,98870.41
2022-12-22T23:51:02.753Z,98869.02
2022-12-22T23:53:35.548Z,98870.37
2022-12-22T23:56:08.639Z,98870.54
2022-12-22T23:58:41.080Z,98866.39
